sensor_id;sensor_type;location;lat;lon;timestamp;P1;durP1;ratioP1;P2;durP2;ratioP2
71572;SDS011;59408;51.032;9.410;2022-10-16T00:01:32;9.02;;;4.53;;
71572;SDS011;59408;51.032;9.410;2022-10-16T00:03:59;9.63;;;4.40;;
71572;SDS011;59408;51.032;9.410;2022-10-16T00:06:27;7.35;;;4.43;;
71572;SDS011;59408;51.032;9.410;2022-10-16T00:08:54;7.57;;;4.90;;
71572;SDS011;59408;51.032;9.410;2022-10-16T00:11:22;7.20;;;4.47;;
71572;SDS011;59408;51.032;9.410;2022-10-16T00:13:50;7.40;;;4.78;;
71572;SDS011;59408;51.032;9.410;2022-10-16T00:16:21;8.80;;;4.43;;
71572;SDS011;59408;51.032;9.410;2022-10-16T00:18:48;7.38;;;4.57;;
71572;SDS011;59408;51.032;9.410;2022-10-16T00:21:16;8.00;;;5.00;;
71572;SDS011;59408;51.032;9.410;2022-10-16T00:23:44;8.32;;;4.75;;
71572;SDS011;59408;51.032;9.410;2022-10-16T00:26:11;7.22;;;4.43;;
71572;SDS011;59408;51.032;9.410;2022-10-16T00:28:39;8.17;;;5.20;;
71572;SDS011;59408;51.032;9.410;2022-10-16T00:31:06;14.05;;;5.20;;
71572;SDS011;59408;51.032;9.410;2022-10-16T00:33:36;8.20;;;4.90;;
71572;SDS011;59408;51.032;9.410;2022-10-16T00:36:04;12.02;;;5.28;;
71572;SDS011;59408;51.032;9.410;2022-10-16T00:38:32;8.45;;;4.60;;
71572;SDS011;59408;51.032;9.410;2022-10-16T00:40:59;8.97;;;4.77;;
71572;SDS011;59408;51.032;9.410;2022-10-16T00:43:33;7.90;;;4.63;;
71572;SDS011;59408;51.032;9.410;2022-10-16T00:46:08;7.38;;;4.90;;
71572;SDS011;59408;51.032;9.410;2022-10-16T00:48:41;9.25;;;4.72;;
71572;SDS011;59408;51.032;9.410;2022-10-16T00:51:11;8.25;;;4.97;;
71572;SDS011;59408;51.032;9.410;2022-10-16T00:53:38;7.27;;;4.60;;
71572;SDS011;59408;51.032;9.410;2022-10-16T00:56:05;7.68;;;4.75;;
71572;SDS011;59408;51.032;9.410;2022-10-16T00:58:32;8.00;;;4.70;;
71572;SDS011;59408;51.032;9.410;2022-10-16T01:00:58;7.97;;;5.07;;
71572;SDS011;59408;51.032;9.410;2022-10-16T01:03:26;9.82;;;4.78;;
71572;SDS011;59408;51.032;9.410;2022-10-16T01:05:59;7.63;;;4.43;;
71572;SDS011;59408;51.032;9.410;2022-10-16T01:08:38;7.47;;;4.75;;
71572;SDS011;59408;51.032;9.410;2022-10-16T01:11:15;6.93;;;4.20;;
71572;SDS011;59408;51.032;9.410;2022-10-16T01:13:48;8.05;;;4.32;;
71572;SDS011;59408;51.032;9.410;2022-10-16T01:16:21;7.80;;;4.68;;
71572;SDS011;59408;51.032;9.410;2022-10-16T01:18:56;7.23;;;4.23;;
71572;SDS011;59408;51.032;9.410;2022-10-16T01:21:29;8.02;;;4.30;;
71572;SDS011;59408;51.032;9.410;2022-10-16T01:24:02;7.90;;;3.83;;
71572;SDS011;59408;51.032;9.410;2022-10-16T01:26:37;6.75;;;3.85;;
71572;SDS011;59408;51.032;9.410;2022-10-16T01:29:18;8.15;;;4.10;;
71572;SDS011;59408;51.032;9.410;2022-10-16T01:31:53;7.67;;;3.70;;
71572;SDS011;59408;51.032;9.410;2022-10-16T01:34:24;7.20;;;4.10;;
71572;SDS011;59408;51.032;9.410;2022-10-16T01:36:59;7.50;;;4.60;;
71572;SDS011;59408;51.032;9.410;2022-10-16T01:39:31;7.38;;;3.70;;
71572;SDS011;59408;51.032;9.410;2022-10-16T01:42:02;7.45;;;3.88;;
71572;SDS011;59408;51.032;9.410;2022-10-16T01:44:35;7.67;;;3.60;;
71572;SDS011;59408;51.032;9.410;2022-10-16T01:47:05;8.55;;;4.10;;
71572;SDS011;59408;51.032;9.410;2022-10-16T01:49:34;6.97;;;3.88;;
71572;SDS011;59408;51.032;9.410;2022-10-16T01:52:04;6.90;;;3.60;;
71572;SDS011;59408;51.032;9.410;2022-10-16T01:54:34;7.05;;;3.97;;
71572;SDS011;59408;51.032;9.410;2022-10-16T01:57:03;6.40;;;3.50;;
71572;SDS011;59408;51.032;9.410;2022-10-16T01:59:32;6.97;;;3.63;;
71572;SDS011;59408;51.032;9.410;2022-10-16T02:02:04;6.68;;;3.80;;
71572;SDS011;59408;51.032;9.410;2022-10-16T02:04:36;7.93;;;3.60;;
71572;SDS011;59408;51.032;9.410;2022-10-16T02:07:04;6.50;;;3.70;;
71572;SDS011;59408;51.032;9.410;2022-10-16T02:09:32;6.47;;;3.60;;
71572;SDS011;59408;51.032;9.410;2022-10-16T02:12:00;7.13;;;3.83;;
71572;SDS011;59408;51.032;9.410;2022-10-16T02:14:32;7.55;;;3.40;;
71572;SDS011;59408;51.032;9.410;2022-10-16T02:16:59;7.40;;;3.05;;
71572;SDS011;59408;51.032;9.410;2022-10-16T02:19:26;6.38;;;2.88;;
71572;SDS011;59408;51.032;9.410;2022-10-16T02:21:54;5.50;;;2.70;;
71572;SDS011;59408;51.032;9.410;2022-10-16T02:24:24;8.20;;;2.90;;
71572;SDS011;59408;51.032;9.410;2022-10-16T02:26:57;5.60;;;2.90;;
71572;SDS011;59408;51.032;9.410;2022-10-16T02:29:31;6.85;;;2.65;;
71572;SDS011;59408;51.032;9.410;2022-10-16T02:32:01;6.95;;;2.70;;
71572;SDS011;59408;51.032;9.410;2022-10-16T02:34:31;5.00;;;2.70;;
71572;SDS011;59408;51.032;9.410;2022-10-16T02:36:59;6.65;;;3.30;;
71572;SDS011;59408;51.032;9.410;2022-10-16T02:39:27;5.97;;;3.55;;
71572;SDS011;59408;51.032;9.410;2022-10-16T02:41:54;6.80;;;3.30;;
71572;SDS011;59408;51.032;9.410;2022-10-16T02:44:21;6.18;;;3.08;;
71572;SDS011;59408;51.032;9.410;2022-10-16T02:46:48;6.60;;;2.70;;
71572;SDS011;59408;51.032;9.410;2022-10-16T02:49:14;5.25;;;2.90;;
71572;SDS011;59408;51.032;9.410;2022-10-16T02:51:42;5.50;;;2.97;;
71572;SDS011;59408;51.032;9.410;2022-10-16T02:54:09;7.18;;;3.10;;
71572;SDS011;59408;51.032;9.410;2022-10-16T02:56:35;7.43;;;3.35;;
71572;SDS011;59408;51.032;9.410;2022-10-16T02:59:02;7.30;;;2.60;;
71572;SDS011;59408;51.032;9.410;2022-10-16T03:01:28;5.95;;;2.60;;
71572;SDS011;59408;51.032;9.410;2022-10-16T03:03:55;5.95;;;2.50;;
71572;SDS011;59408;51.032;9.410;2022-10-16T03:06:22;5.95;;;2.95;;
71572;SDS011;59408;51.032;9.410;2022-10-16T03:08:50;6.57;;;2.75;;
71572;SDS011;59408;51.032;9.410;2022-10-16T03:11:17;6.10;;;2.50;;
71572;SDS011;59408;51.032;9.410;2022-10-16T03:13:43;6.32;;;2.83;;
71572;SDS011;59408;51.032;9.410;2022-10-16T03:16:10;5.38;;;2.70;;
71572;SDS011;59408;51.032;9.410;2022-10-16T03:18:36;7.75;;;2.63;;
71572;SDS011;59408;51.032;9.410;2022-10-16T03:21:03;6.07;;;3.00;;
71572;SDS011;59408;51.032;9.410;2022-10-16T03:23:30;5.90;;;2.90;;
71572;SDS011;59408;51.032;9.410;2022-10-16T03:26:03;6.15;;;3.10;;
71572;SDS011;59408;51.032;9.410;2022-10-16T03:28:29;6.55;;;3.38;;
71572;SDS011;59408;51.032;9.410;2022-10-16T03:30:56;7.10;;;3.83;;
71572;SDS011;59408;51.032;9.410;2022-10-16T03:33:23;6.25;;;3.50;;
71572;SDS011;59408;51.032;9.410;2022-10-16T03:35:52;6.60;;;3.50;;
71572;SDS011;59408;51.032;9.410;2022-10-16T03:38:19;6.00;;;3.50;;
71572;SDS011;59408;51.032;9.410;2022-10-16T03:40:46;6.72;;;3.80;;
71572;SDS011;59408;51.032;9.410;2022-10-16T03:43:15;7.22;;;3.50;;
71572;SDS011;59408;51.032;9.410;2022-10-16T03:45:41;7.20;;;3.50;;
71572;SDS011;59408;51.032;9.410;2022-10-16T03:48:08;7.23;;;3.33;;
71572;SDS011;59408;51.032;9.410;2022-10-16T03:50:34;6.95;;;3.28;;
71572;SDS011;59408;51.032;9.410;2022-10-16T03:53:01;6.35;;;3.72;;
71572;SDS011;59408;51.032;9.410;2022-10-16T03:55:29;7.05;;;3.33;;
71572;SDS011;59408;51.032;9.410;2022-10-16T03:57:55;7.32;;;3.63;;
71572;SDS011;59408;51.032;9.410;2022-10-16T04:00:23;8.33;;;3.63;;
71572;SDS011;59408;51.032;9.410;2022-10-16T04:02:50;6.80;;;3.60;;
71572;SDS011;59408;51.032;9.410;2022-10-16T04:05:17;13.18;;;4.60;;
71572;SDS011;59408;51.032;9.410;2022-10-16T04:07:43;7.35;;;3.67;;
71572;SDS011;59408;51.032;9.410;2022-10-16T04:10:10;6.75;;;3.50;;
71572;SDS011;59408;51.032;9.410;2022-10-16T04:12:36;6.17;;;3.27;;
71572;SDS011;59408;51.032;9.410;2022-10-16T04:15:03;7.70;;;3.58;;
71572;SDS011;59408;51.032;9.410;2022-10-16T04:17:31;6.47;;;3.60;;
71572;SDS011;59408;51.032;9.410;2022-10-16T04:19:57;6.53;;;3.10;;
71572;SDS011;59408;51.032;9.410;2022-10-16T04:22:24;8.77;;;3.60;;
71572;SDS011;59408;51.032;9.410;2022-10-16T04:24:56;6.83;;;3.50;;
71572;SDS011;59408;51.032;9.410;2022-10-16T04:27:22;6.28;;;3.33;;
71572;SDS011;59408;51.032;9.410;2022-10-16T04:29:49;7.85;;;3.67;;
71572;SDS011;59408;51.032;9.410;2022-10-16T04:32:16;7.10;;;3.83;;
71572;SDS011;59408;51.032;9.410;2022-10-16T04:34:43;8.10;;;4.03;;
71572;SDS011;59408;51.032;9.410;2022-10-16T04:37:10;8.70;;;4.23;;
71572;SDS011;59408;51.032;9.410;2022-10-16T04:39:37;9.68;;;4.20;;
71572;SDS011;59408;51.032;9.410;2022-10-16T04:42:03;7.97;;;4.22;;
71572;SDS011;59408;51.032;9.410;2022-10-16T04:44:30;7.68;;;4.20;;
71572;SDS011;59408;51.032;9.410;2022-10-16T04:46:56;8.65;;;4.53;;
71572;SDS011;59408;51.032;9.410;2022-10-16T04:49:23;8.73;;;4.03;;
71572;SDS011;59408;51.032;9.410;2022-10-16T04:51:51;8.10;;;3.92;;
71572;SDS011;59408;51.032;9.410;2022-10-16T04:54:17;8.57;;;4.13;;
71572;SDS011;59408;51.032;9.410;2022-10-16T04:56:44;8.57;;;4.00;;
71572;SDS011;59408;51.032;9.410;2022-10-16T04:59:11;9.30;;;3.95;;
71572;SDS011;59408;51.032;9.410;2022-10-16T05:01:37;7.00;;;3.47;;
71572;SDS011;59408;51.032;9.410;2022-10-16T05:04:04;6.78;;;3.30;;
71572;SDS011;59408;51.032;9.410;2022-10-16T05:06:30;7.38;;;3.80;;
71572;SDS011;59408;51.032;9.410;2022-10-16T05:08:58;6.60;;;3.30;;
71572;SDS011;59408;51.032;9.410;2022-10-16T05:11:25;7.88;;;3.80;;
71572;SDS011;59408;51.032;9.410;2022-10-16T05:13:52;6.50;;;3.17;;
71572;SDS011;59408;51.032;9.410;2022-10-16T05:16:21;6.80;;;3.03;;
71572;SDS011;59408;51.032;9.410;2022-10-16T05:18:47;7.15;;;3.53;;
71572;SDS011;59408;51.032;9.410;2022-10-16T05:21:18;7.40;;;3.00;;
71572;SDS011;59408;51.032;9.410;2022-10-16T05:23:45;6.57;;;2.78;;
71572;SDS011;59408;51.032;9.410;2022-10-16T05:26:12;6.20;;;2.90;;
71572;SDS011;59408;51.032;9.410;2022-10-16T05:28:39;7.85;;;3.28;;
71572;SDS011;59408;51.032;9.410;2022-10-16T05:31:06;6.78;;;3.05;;
71572;SDS011;59408;51.032;9.410;2022-10-16T05:33:33;6.00;;;2.95;;
71572;SDS011;59408;51.032;9.410;2022-10-16T05:36:00;6.85;;;3.13;;
71572;SDS011;59408;51.032;9.410;2022-10-16T05:38:27;7.43;;;3.10;;
71572;SDS011;59408;51.032;9.410;2022-10-16T05:40:54;6.78;;;2.65;;
71572;SDS011;59408;51.032;9.410;2022-10-16T05:43:22;6.28;;;2.65;;
71572;SDS011;59408;51.032;9.410;2022-10-16T05:45:55;7.95;;;3.05;;
71572;SDS011;59408;51.032;9.410;2022-10-16T05:48:22;6.18;;;2.90;;
71572;SDS011;59408;51.032;9.410;2022-10-16T05:50:55;5.93;;;2.87;;
71572;SDS011;59408;51.032;9.410;2022-10-16T05:53:23;7.35;;;2.58;;
71572;SDS011;59408;51.032;9.410;2022-10-16T05:55:51;6.13;;;2.78;;
71572;SDS011;59408;51.032;9.410;2022-10-16T05:58:18;5.72;;;2.75;;
71572;SDS011;59408;51.032;9.410;2022-10-16T06:00:46;5.38;;;2.40;;
71572;SDS011;59408;51.032;9.410;2022-10-16T06:03:19;6.37;;;2.23;;
71572;SDS011;59408;51.032;9.410;2022-10-16T06:05:45;6.63;;;2.00;;
71572;SDS011;59408;51.032;9.410;2022-10-16T06:08:12;4.45;;;1.90;;
71572;SDS011;59408;51.032;9.410;2022-10-16T06:10:39;5.65;;;1.60;;
71572;SDS011;59408;51.032;9.410;2022-10-16T06:13:05;4.18;;;1.50;;
71572;SDS011;59408;51.032;9.410;2022-10-16T06:15:32;4.47;;;1.20;;
71572;SDS011;59408;51.032;9.410;2022-10-16T06:18:00;3.83;;;1.30;;
71572;SDS011;59408;51.032;9.410;2022-10-16T06:20:26;4.00;;;1.35;;
71572;SDS011;59408;51.032;9.410;2022-10-16T06:22:53;4.53;;;1.30;;
71572;SDS011;59408;51.032;9.410;2022-10-16T06:25:19;3.85;;;1.23;;
71572;SDS011;59408;51.032;9.410;2022-10-16T06:27:46;5.20;;;1.20;;
71572;SDS011;59408;51.032;9.410;2022-10-16T06:30:13;3.65;;;1.27;;
71572;SDS011;59408;51.032;9.410;2022-10-16T06:32:39;3.97;;;1.50;;
71572;SDS011;59408;51.032;9.410;2022-10-16T06:35:08;5.03;;;1.48;;
71572;SDS011;59408;51.032;9.410;2022-10-16T06:37:34;3.58;;;1.30;;
71572;SDS011;59408;51.032;9.410;2022-10-16T06:40:01;3.50;;;1.17;;
71572;SDS011;59408;51.032;9.410;2022-10-16T06:42:27;3.97;;;1.20;;
71572;SDS011;59408;51.032;9.410;2022-10-16T06:44:54;4.00;;;1.00;;
71572;SDS011;59408;51.032;9.410;2022-10-16T06:47:21;4.93;;;1.30;;
71572;SDS011;59408;51.032;9.410;2022-10-16T06:49:47;3.70;;;1.40;;
71572;SDS011;59408;51.032;9.410;2022-10-16T06:52:20;3.73;;;1.30;;
71572;SDS011;59408;51.032;9.410;2022-10-16T06:54:47;6.40;;;1.30;;
71572;SDS011;59408;51.032;9.410;2022-10-16T06:57:13;4.05;;;1.20;;
71572;SDS011;59408;51.032;9.410;2022-10-16T06:59:40;3.30;;;1.10;;
71572;SDS011;59408;51.032;9.410;2022-10-16T07:02:12;3.45;;;1.10;;
71572;SDS011;59408;51.032;9.410;2022-10-16T07:04:38;3.37;;;1.20;;
71572;SDS011;59408;51.032;9.410;2022-10-16T07:07:05;3.08;;;1.00;;
71572;SDS011;59408;51.032;9.410;2022-10-16T07:09:36;3.17;;;0.93;;
71572;SDS011;59408;51.032;9.410;2022-10-16T07:12:03;4.13;;;1.13;;
71572;SDS011;59408;51.032;9.410;2022-10-16T07:14:30;4.18;;;1.23;;
71572;SDS011;59408;51.032;9.410;2022-10-16T07:16:56;3.83;;;1.10;;
71572;SDS011;59408;51.032;9.410;2022-10-16T07:19:23;4.70;;;1.20;;
71572;SDS011;59408;51.032;9.410;2022-10-16T07:21:49;4.22;;;1.20;;
71572;SDS011;59408;51.032;9.410;2022-10-16T07:24:16;3.00;;;1.10;;
71572;SDS011;59408;51.032;9.410;2022-10-16T07:26:45;5.78;;;1.20;;
71572;SDS011;59408;51.032;9.410;2022-10-16T07:29:13;3.33;;;1.10;;
71572;SDS011;59408;51.032;9.410;2022-10-16T07:31:41;3.60;;;1.10;;
71572;SDS011;59408;51.032;9.410;2022-10-16T07:34:08;6.07;;;1.20;;
71572;SDS011;59408;51.032;9.410;2022-10-16T07:36:36;4.05;;;1.30;;
71572;SDS011;59408;51.032;9.410;2022-10-16T07:39:02;4.20;;;1.30;;
71572;SDS011;59408;51.032;9.410;2022-10-16T07:41:29;3.17;;;1.13;;
71572;SDS011;59408;51.032;9.410;2022-10-16T07:43:57;4.38;;;1.33;;
71572;SDS011;59408;51.032;9.410;2022-10-16T07:46:25;3.65;;;1.20;;
71572;SDS011;59408;51.032;9.410;2022-10-16T07:48:52;3.20;;;1.00;;
71572;SDS011;59408;51.032;9.410;2022-10-16T07:51:19;4.38;;;1.13;;
71572;SDS011;59408;51.032;9.410;2022-10-16T07:53:47;3.50;;;1.10;;
71572;SDS011;59408;51.032;9.410;2022-10-16T07:56:15;3.45;;;1.00;;
71572;SDS011;59408;51.032;9.410;2022-10-16T07:58:43;2.90;;;1.00;;
71572;SDS011;59408;51.032;9.410;2022-10-16T08:01:12;3.50;;;1.10;;
71572;SDS011;59408;51.032;9.410;2022-10-16T08:03:41;4.97;;;1.33;;
71572;SDS011;59408;51.032;9.410;2022-10-16T08:06:08;3.70;;;1.40;;
71572;SDS011;59408;51.032;9.410;2022-10-16T08:08:34;4.78;;;1.30;;
71572;SDS011;59408;51.032;9.410;2022-10-16T08:11:01;4.07;;;1.60;;
71572;SDS011;59408;51.032;9.410;2022-10-16T08:13:28;4.95;;;1.40;;
71572;SDS011;59408;51.032;9.410;2022-10-16T08:15:54;7.28;;;1.60;;
71572;SDS011;59408;51.032;9.410;2022-10-16T08:18:22;4.23;;;1.60;;
71572;SDS011;59408;51.032;9.410;2022-10-16T08:20:54;3.90;;;1.52;;
71572;SDS011;59408;51.032;9.410;2022-10-16T08:23:22;4.32;;;1.67;;
71572;SDS011;59408;51.032;9.410;2022-10-16T08:25:48;5.05;;;1.50;;
71572;SDS011;59408;51.032;9.410;2022-10-16T08:28:15;7.75;;;1.90;;
71572;SDS011;59408;51.032;9.410;2022-10-16T08:30:41;4.93;;;1.77;;
71572;SDS011;59408;51.032;9.410;2022-10-16T08:33:08;5.38;;;1.90;;
71572;SDS011;59408;51.032;9.410;2022-10-16T08:35:36;5.20;;;1.80;;
71572;SDS011;59408;51.032;9.410;2022-10-16T08:38:03;5.05;;;1.80;;
71572;SDS011;59408;51.032;9.410;2022-10-16T08:40:29;5.57;;;1.75;;
71572;SDS011;59408;51.032;9.410;2022-10-16T08:43:05;4.47;;;1.70;;
71572;SDS011;59408;51.032;9.410;2022-10-16T08:48:39;4.50;;;1.70;;
71572;SDS011;59408;51.032;9.410;2022-10-16T08:51:12;4.10;;;1.42;;
71572;SDS011;59408;51.032;9.410;2022-10-16T08:53:46;4.20;;;1.70;;
71572;SDS011;59408;51.032;9.410;2022-10-16T08:56:18;4.00;;;1.40;;
71572;SDS011;59408;51.032;9.410;2022-10-16T08:58:44;5.47;;;1.60;;
71572;SDS011;59408;51.032;9.410;2022-10-16T09:01:17;6.38;;;1.70;;
71572;SDS011;59408;51.032;9.410;2022-10-16T09:04:03;4.82;;;1.70;;
71572;SDS011;59408;51.032;9.410;2022-10-16T09:06:57;4.70;;;1.58;;
71572;SDS011;59408;51.032;9.410;2022-10-16T09:09:44;4.40;;;1.70;;
71572;SDS011;59408;51.032;9.410;2022-10-16T09:12:21;4.60;;;1.70;;
71572;SDS011;59408;51.032;9.410;2022-10-16T09:14:56;4.65;;;1.88;;
71572;SDS011;59408;51.032;9.410;2022-10-16T09:17:30;4.32;;;1.70;;
71572;SDS011;59408;51.032;9.410;2022-10-16T09:20:11;3.60;;;1.40;;
71572;SDS011;59408;51.032;9.410;2022-10-16T09:22:45;3.87;;;1.43;;
71572;SDS011;59408;51.032;9.410;2022-10-16T09:25:13;4.95;;;1.58;;
71572;SDS011;59408;51.032;9.410;2022-10-16T09:27:41;5.82;;;2.00;;
71572;SDS011;59408;51.032;9.410;2022-10-16T09:30:11;4.35;;;1.60;;
71572;SDS011;59408;51.032;9.410;2022-10-16T09:32:39;4.22;;;1.48;;
71572;SDS011;59408;51.032;9.410;2022-10-16T09:35:09;6.60;;;2.30;;
71572;SDS011;59408;51.032;9.410;2022-10-16T09:37:39;7.43;;;3.00;;
71572;SDS011;59408;51.032;9.410;2022-10-16T09:40:13;11.93;;;4.10;;
71572;SDS011;59408;51.032;9.410;2022-10-16T09:42:50;6.55;;;1.52;;
71572;SDS011;59408;51.032;9.410;2022-10-16T09:45:22;5.65;;;1.60;;
71572;SDS011;59408;51.032;9.410;2022-10-16T09:47:49;4.03;;;1.47;;
71572;SDS011;59408;51.032;9.410;2022-10-16T09:50:23;3.92;;;1.60;;
71572;SDS011;59408;51.032;9.410;2022-10-16T09:53:02;4.35;;;1.20;;
71572;SDS011;59408;51.032;9.410;2022-10-16T09:55:31;4.90;;;1.50;;
71572;SDS011;59408;51.032;9.410;2022-10-16T09:57:57;4.50;;;1.40;;
71572;SDS011;59408;51.032;9.410;2022-10-16T10:00:24;3.53;;;1.20;;
71572;SDS011;59408;51.032;9.410;2022-10-16T10:02:51;4.25;;;1.20;;
71572;SDS011;59408;51.032;9.410;2022-10-16T10:05:21;4.25;;;1.30;;
71572;SDS011;59408;51.032;9.410;2022-10-16T10:07:54;6.43;;;1.23;;
71572;SDS011;59408;51.032;9.410;2022-10-16T10:10:23;4.10;;;1.20;;
71572;SDS011;59408;51.032;9.410;2022-10-16T10:12:52;3.00;;;1.07;;
71572;SDS011;59408;51.032;9.410;2022-10-16T10:15:19;4.25;;;0.80;;
71572;SDS011;59408;51.032;9.410;2022-10-16T10:17:46;3.13;;;1.00;;
71572;SDS011;59408;51.032;9.410;2022-10-16T10:20:25;3.88;;;1.02;;
71572;SDS011;59408;51.032;9.410;2022-10-16T10:22:54;3.50;;;1.20;;
71572;SDS011;59408;51.032;9.410;2022-10-16T10:28:29;3.10;;;0.90;;
71572;SDS011;59408;51.032;9.410;2022-10-16T10:31:06;2.55;;;0.80;;
71572;SDS011;59408;51.032;9.410;2022-10-16T10:33:41;2.97;;;0.98;;
71572;SDS011;59408;51.032;9.410;2022-10-16T10:36:22;3.65;;;1.00;;
71572;SDS011;59408;51.032;9.410;2022-10-16T10:38:56;3.13;;;0.70;;
71572;SDS011;59408;51.032;9.410;2022-10-16T10:41:43;3.97;;;1.00;;
71572;SDS011;59408;51.032;9.410;2022-10-16T10:44:25;2.90;;;0.90;;
71572;SDS011;59408;51.032;9.410;2022-10-16T10:47:16;4.80;;;1.00;;
71572;SDS011;59408;51.032;9.410;2022-10-16T10:49:54;3.05;;;0.80;;
71572;SDS011;59408;51.032;9.410;2022-10-16T10:52:41;2.87;;;0.73;;
71572;SDS011;59408;51.032;9.410;2022-10-16T10:55:20;3.25;;;0.70;;
71572;SDS011;59408;51.032;9.410;2022-10-16T10:57:59;3.53;;;0.90;;
71572;SDS011;59408;51.032;9.410;2022-10-16T11:00:44;3.10;;;0.80;;
71572;SDS011;59408;51.032;9.410;2022-10-16T11:03:24;3.53;;;0.82;;
71572;SDS011;59408;51.032;9.410;2022-10-16T11:06:02;2.40;;;0.70;;
71572;SDS011;59408;51.032;9.410;2022-10-16T11:08:34;2.92;;;0.80;;
71572;SDS011;59408;51.032;9.410;2022-10-16T11:11:06;2.28;;;0.80;;
71572;SDS011;59408;51.032;9.410;2022-10-16T11:13:38;3.95;;;0.70;;
71572;SDS011;59408;51.032;9.410;2022-10-16T11:16:13;1.92;;;0.60;;
71572;SDS011;59408;51.032;9.410;2022-10-16T11:18:48;2.97;;;0.70;;
71572;SDS011;59408;51.032;9.410;2022-10-16T11:21:19;2.10;;;0.60;;
71572;SDS011;59408;51.032;9.410;2022-10-16T11:23:55;3.22;;;0.73;;
71572;SDS011;59408;51.032;9.410;2022-10-16T11:26:27;2.30;;;0.70;;
71572;SDS011;59408;51.032;9.410;2022-10-16T11:28:59;2.60;;;0.88;;
71572;SDS011;59408;51.032;9.410;2022-10-16T11:31:33;2.53;;;0.70;;
71572;SDS011;59408;51.032;9.410;2022-10-16T11:34:06;3.33;;;0.80;;
71572;SDS011;59408;51.032;9.410;2022-10-16T11:36:38;3.65;;;0.88;;
71572;SDS011;59408;51.032;9.410;2022-10-16T11:39:22;2.67;;;0.70;;
71572;SDS011;59408;51.032;9.410;2022-10-16T11:41:52;2.47;;;0.80;;
71572;SDS011;59408;51.032;9.410;2022-10-16T11:44:33;3.13;;;0.80;;
71572;SDS011;59408;51.032;9.410;2022-10-16T11:47:09;3.47;;;0.63;;
71572;SDS011;59408;51.032;9.410;2022-10-16T11:50:09;2.25;;;0.90;;
71572;SDS011;59408;51.032;9.410;2022-10-16T11:52:47;3.05;;;0.65;;
71572;SDS011;59408;51.032;9.410;2022-10-16T11:55:20;2.75;;;0.85;;
71572;SDS011;59408;51.032;9.410;2022-10-16T11:57:50;2.73;;;0.80;;
71572;SDS011;59408;51.032;9.410;2022-10-16T12:00:20;2.30;;;0.65;;
71572;SDS011;59408;51.032;9.410;2022-10-16T12:02:53;2.63;;;0.70;;
71572;SDS011;59408;51.032;9.410;2022-10-16T12:05:28;2.40;;;0.90;;
71572;SDS011;59408;51.032;9.410;2022-10-16T12:08:03;2.35;;;0.80;;
71572;SDS011;59408;51.032;9.410;2022-10-16T12:10:35;1.87;;;0.70;;
71572;SDS011;59408;51.032;9.410;2022-10-16T12:13:02;2.95;;;0.73;;
71572;SDS011;59408;51.032;9.410;2022-10-16T12:15:30;5.10;;;1.90;;
71572;SDS011;59408;51.032;9.410;2022-10-16T12:18:22;4.10;;;1.42;;
71572;SDS011;59408;51.032;9.410;2022-10-16T12:20:54;3.45;;;1.10;;
71572;SDS011;59408;51.032;9.410;2022-10-16T12:23:22;2.10;;;0.63;;
71572;SDS011;59408;51.032;9.410;2022-10-16T12:25:53;3.03;;;0.93;;
71572;SDS011;59408;51.032;9.410;2022-10-16T12:28:21;5.03;;;1.27;;
71572;SDS011;59408;51.032;9.410;2022-10-16T12:30:52;2.95;;;0.82;;
71572;SDS011;59408;51.032;9.410;2022-10-16T12:33:21;2.67;;;1.00;;
71572;SDS011;59408;51.032;9.410;2022-10-16T12:35:51;2.80;;;0.90;;
71572;SDS011;59408;51.032;9.410;2022-10-16T12:38:19;2.67;;;0.95;;
71572;SDS011;59408;51.032;9.410;2022-10-16T12:40:54;3.45;;;0.80;;
71572;SDS011;59408;51.032;9.410;2022-10-16T12:43:25;2.40;;;0.63;;
71572;SDS011;59408;51.032;9.410;2022-10-16T12:46:04;2.40;;;0.73;;
71572;SDS011;59408;51.032;9.410;2022-10-16T12:48:47;2.27;;;0.70;;
71572;SDS011;59408;51.032;9.410;2022-10-16T12:51:33;2.42;;;0.82;;
71572;SDS011;59408;51.032;9.410;2022-10-16T12:54:02;3.42;;;0.70;;
71572;SDS011;59408;51.032;9.410;2022-10-16T12:56:34;2.28;;;0.70;;
71572;SDS011;59408;51.032;9.410;2022-10-16T12:59:15;2.22;;;0.90;;
71572;SDS011;59408;51.032;9.410;2022-10-16T13:01:56;1.90;;;0.60;;
71572;SDS011;59408;51.032;9.410;2022-10-16T13:04:39;2.75;;;0.73;;
71572;SDS011;59408;51.032;9.410;2022-10-16T13:07:17;2.35;;;0.70;;
71572;SDS011;59408;51.032;9.410;2022-10-16T13:10:00;2.55;;;0.80;;
71572;SDS011;59408;51.032;9.410;2022-10-16T13:12:42;3.05;;;0.80;;
71572;SDS011;59408;51.032;9.410;2022-10-16T13:18:16;1.67;;;0.60;;
71572;SDS011;59408;51.032;9.410;2022-10-16T13:20:59;3.20;;;0.70;;
71572;SDS011;59408;51.032;9.410;2022-10-16T13:23:34;3.80;;;0.90;;
71572;SDS011;59408;51.032;9.410;2022-10-16T13:26:11;2.10;;;0.60;;
71572;SDS011;59408;51.032;9.410;2022-10-16T13:28:47;2.67;;;0.90;;
71572;SDS011;59408;51.032;9.410;2022-10-16T13:31:15;2.60;;;0.63;;
71572;SDS011;59408;51.032;9.410;2022-10-16T13:33:46;2.95;;;0.68;;
71572;SDS011;59408;51.032;9.410;2022-10-16T13:36:20;2.33;;;0.80;;
71572;SDS011;59408;51.032;9.410;2022-10-16T13:38:48;2.75;;;0.80;;
71572;SDS011;59408;51.032;9.410;2022-10-16T13:41:16;1.90;;;0.60;;
71572;SDS011;59408;51.032;9.410;2022-10-16T13:43:44;2.60;;;0.82;;
71572;SDS011;59408;51.032;9.410;2022-10-16T13:46:13;2.53;;;0.80;;
71572;SDS011;59408;51.032;9.410;2022-10-16T13:48:41;2.67;;;0.80;;
71572;SDS011;59408;51.032;9.410;2022-10-16T13:51:11;3.97;;;0.90;;
71572;SDS011;59408;51.032;9.410;2022-10-16T13:53:41;2.27;;;0.80;;
71572;SDS011;59408;51.032;9.410;2022-10-16T13:56:10;2.10;;;0.65;;
71572;SDS011;59408;51.032;9.410;2022-10-16T13:58:38;2.53;;;0.90;;
71572;SDS011;59408;51.032;9.410;2022-10-16T14:01:05;2.97;;;0.65;;
71572;SDS011;59408;51.032;9.410;2022-10-16T14:03:43;2.63;;;0.95;;
71572;SDS011;59408;51.032;9.410;2022-10-16T14:06:11;2.30;;;0.70;;
71572;SDS011;59408;51.032;9.410;2022-10-16T14:08:43;2.83;;;0.70;;
71572;SDS011;59408;51.032;9.410;2022-10-16T14:11:12;2.83;;;0.68;;
71572;SDS011;59408;51.032;9.410;2022-10-16T14:13:39;2.55;;;0.82;;
71572;SDS011;59408;51.032;9.410;2022-10-16T14:16:16;3.20;;;0.77;;
71572;SDS011;59408;51.032;9.410;2022-10-16T14:18:45;2.83;;;0.80;;
71572;SDS011;59408;51.032;9.410;2022-10-16T14:21:13;2.22;;;0.65;;
71572;SDS011;59408;51.032;9.410;2022-10-16T14:23:43;2.17;;;0.65;;
71572;SDS011;59408;51.032;9.410;2022-10-16T14:26:16;2.92;;;0.60;;
71572;SDS011;59408;51.032;9.410;2022-10-16T14:28:45;3.03;;;0.80;;
71572;SDS011;59408;51.032;9.410;2022-10-16T14:31:23;2.30;;;0.60;;
71572;SDS011;59408;51.032;9.410;2022-10-16T14:33:52;1.95;;;0.60;;
71572;SDS011;59408;51.032;9.410;2022-10-16T14:36:19;2.58;;;0.80;;
71572;SDS011;59408;51.032;9.410;2022-10-16T14:38:49;6.10;;;0.77;;
71572;SDS011;59408;51.032;9.410;2022-10-16T14:41:23;2.35;;;0.70;;
71572;SDS011;59408;51.032;9.410;2022-10-16T14:43:50;2.53;;;0.90;;
71572;SDS011;59408;51.032;9.410;2022-10-16T14:46:19;2.33;;;0.65;;
71572;SDS011;59408;51.032;9.410;2022-10-16T14:48:49;3.35;;;0.95;;
71572;SDS011;59408;51.032;9.410;2022-10-16T14:51:17;2.70;;;0.85;;
71572;SDS011;59408;51.032;9.410;2022-10-16T14:53:45;3.20;;;0.90;;
71572;SDS011;59408;51.032;9.410;2022-10-16T14:56:15;2.20;;;0.60;;
71572;SDS011;59408;51.032;9.410;2022-10-16T14:58:44;4.72;;;0.95;;
71572;SDS011;59408;51.032;9.410;2022-10-16T15:01:11;3.20;;;1.02;;
71572;SDS011;59408;51.032;9.410;2022-10-16T15:03:37;4.30;;;0.85;;
71572;SDS011;59408;51.032;9.410;2022-10-16T15:06:08;3.75;;;1.15;;
71572;SDS011;59408;51.032;9.410;2022-10-16T15:08:36;4.53;;;1.00;;
71572;SDS011;59408;51.032;9.410;2022-10-16T15:11:03;3.90;;;1.10;;
71572;SDS011;59408;51.032;9.410;2022-10-16T15:13:31;5.60;;;1.20;;
71572;SDS011;59408;51.032;9.410;2022-10-16T15:15:57;2.97;;;1.00;;